Jeffersonville, Illinois
Current Conditions -  °F | °C
As of 12:15 PM on Monday 22 Dec 2014 (Local Time) from KFWC Reporting Station
Moderate Rain Moderate Rain  
Wind Chill: 42°   Ceiling: 1200
Heat Index: 47°   Visibility: 7mi
Dew Point: 45°   Wind: 14mph
Humidity: 90%   Direction: 130°SE
Pressure: 29.72"   Gusts: 21mph
Location:  38.4399°N, 88.4246°W
Report Text: KFWC 221815Z AUTO 13012G18KT 7SM RA OVC012 09/07 A2972 RMK AO1 T00850070
Loading
Personal Weather Stations






























Interactive Weather Map New forecast layout! Learn more

10-Day Weather Forecast

Advertisements
Track Severe Weather on mobile